Time;durP1;ratioP1;P1;durP2;ratioP2;P2;SDS_P1;SDS_P2;PMS_P1;PMS_P2;Temp;Humidity;BMP_temperature;BMP_pressure;BME280_temperature;BME280_humidity;BME280_pressure;Samples;Min_cycle;Max_cycle;Signal;HPM_P1;HPM_P2
2021/08/18 00:01:42;;;;;;;2.85;1.83;;;16.40;99.90;;;;;;5097858;28;20503;-65
2021/08/18 00:04:08;;;;;;;2.65;1.50;;;16.40;99.90;;;;;;5098856;28;20385;-65
2021/08/18 00:06:34;;;;;;;4.20;1.35;;;16.40;99.90;;;;;;5098687;28;20368;-65
2021/08/18 00:09:00;;;;;;;1.55;1.00;;;16.40;99.90;;;;;;5098717;28;20174;-65
2021/08/18 00:11:25;;;;;;;0.80;0.80;;;16.30;99.90;;;;;;5098399;28;20103;-64
2021/08/18 00:13:52;;;;;;;2.08;1.02;;;16.30;99.90;;;;;;5098925;28;20020;-65
2021/08/18 00:16:20;;;;;;;2.75;1.10;;;16.40;99.90;;;;;;5098306;28;20028;-65
2021/08/18 00:18:51;;;;;;;2.40;1.05;;;16.30;99.90;;;;;;5098685;28;20016;-65
2021/08/18 00:21:18;;;;;;;5.05;1.17;;;16.30;99.90;;;;;;5098614;28;20098;-64
2021/08/18 00:23:45;;;;;;;2.63;1.17;;;16.30;99.90;;;;;;5096956;28;20020;-65
2021/08/18 00:26:12;;;;;;;1.05;0.93;;;16.20;99.90;;;;;;5098204;28;20028;-65
2021/08/18 00:28:38;;;;;;;1.38;1.00;;;16.20;99.90;;;;;;5098382;28;20020;-65
2021/08/18 00:31:04;;;;;;;4.35;1.73;;;16.20;99.90;;;;;;5098012;28;20100;-64
2021/08/18 00:33:30;;;;;;;3.70;1.30;;;16.20;99.90;;;;;;5097816;28;20027;-65
2021/08/18 00:35:56;;;;;;;5.13;1.17;;;16.20;99.90;;;;;;5097990;28;20031;-65
2021/08/18 00:38:22;;;;;;;2.58;1.50;;;16.20;99.90;;;;;;5098184;28;20028;-65
2021/08/18 00:40:48;;;;;;;4.32;1.20;;;16.20;99.90;;;;;;5098115;28;20032;-64
2021/08/18 00:43:15;;;;;;;2.30;1.10;;;16.20;99.90;;;;;;5098076;28;20047;-65
2021/08/18 00:45:41;;;;;;;3.03;1.05;;;16.10;99.90;;;;;;5097832;28;20087;-64
2021/08/18 00:48:07;;;;;;;1.60;1.13;;;16.10;99.90;;;;;;5097699;28;20024;-65
2021/08/18 00:50:33;;;;;;;2.72;1.10;;;16.10;99.90;;;;;;5097745;28;20103;-65
2021/08/18 00:52:59;;;;;;;1.85;1.00;;;16.10;99.90;;;;;;5097966;28;20048;-65
2021/08/18 00:55:26;;;;;;;2.00;1.35;;;16.10;99.90;;;;;;5097359;28;20052;-65
2021/08/18 00:57:54;;;;;;;2.53;1.10;;;16.10;99.90;;;;;;5097886;28;20111;-65
2021/08/18 01:00:23;;;;;;;2.25;1.05;;;16.00;99.90;;;;;;5097852;28;20043;-64
2021/08/18 01:02:49;;;;;;;3.72;1.67;;;16.00;99.90;;;;;;5097607;28;20031;-64
2021/08/18 01:05:15;;;;;;;5.63;1.40;;;16.00;99.90;;;;;;5097524;28;20392;-65
2021/08/18 01:07:43;;;;;;;3.35;1.45;;;15.90;99.90;;;;;;5097637;28;20020;-65
2021/08/18 01:10:12;;;;;;;4.07;1.75;;;15.90;99.90;;;;;;5097335;28;20024;-65
2021/08/18 01:12:39;;;;;;;3.13;1.10;;;15.90;99.90;;;;;;5097461;28;20099;-65
2021/08/18 01:15:09;;;;;;;3.22;1.40;;;15.90;99.90;;;;;;5097354;28;20484;-65
2021/08/18 01:17:42;;;;;;;2.35;1.60;;;15.80;99.90;;;;;;5097108;28;20024;-65
2021/08/18 01:20:10;;;;;;;2.75;1.40;;;15.80;99.90;;;;;;5097205;28;20030;-65
2021/08/18 01:22:37;;;;;;;2.33;1.10;;;15.80;99.90;;;;;;5097109;28;20039;-65
2021/08/18 01:25:05;;;;;;;1.58;1.20;;;15.80;99.90;;;;;;5096960;28;20020;-65
2021/08/18 01:27:31;;;;;;;3.30;1.48;;;15.80;99.90;;;;;;5097187;28;20024;-65
2021/08/18 01:29:58;;;;;;;2.17;1.23;;;15.80;99.90;;;;;;5097327;28;20056;-64
2021/08/18 01:32:23;;;;;;;2.35;1.40;;;15.70;99.90;;;;;;5096537;28;20033;-65
2021/08/18 01:34:49;;;;;;;4.00;1.38;;;15.70;99.90;;;;;;5097435;28;20030;-65
2021/08/18 01:37:15;;;;;;;2.75;1.27;;;15.70;99.90;;;;;;5097096;28;20018;-65
2021/08/18 01:39:41;;;;;;;3.65;1.40;;;15.70;99.90;;;;;;5097033;28;20488;-65
2021/08/18 01:42:07;;;;;;;5.78;1.95;;;15.60;99.90;;;;;;5097052;28;20035;-65
2021/08/18 01:44:33;;;;;;;2.33;1.35;;;15.70;99.90;;;;;;5097040;28;20400;-64
2021/08/18 01:46:59;;;;;;;1.98;1.23;;;15.60;99.90;;;;;;5096293;28;20024;-65
2021/08/18 01:49:28;;;;;;;5.05;1.20;;;15.60;99.90;;;;;;5097009;28;20028;-65
2021/08/18 01:51:56;;;;;;;2.78;1.02;;;15.50;99.90;;;;;;5096781;28;20027;-65
2021/08/18 01:54:22;;;;;;;5.43;1.42;;;15.60;99.90;;;;;;5096659;28;20052;-65
2021/08/18 01:56:48;;;;;;;1.63;1.25;;;15.50;99.90;;;;;;5096777;28;20021;-65
2021/08/18 01:59:14;;;;;;;1.73;1.45;;;15.50;99.90;;;;;;5096869;28;20025;-65
2021/08/18 02:01:41;;;;;;;1.63;1.10;;;15.50;99.90;;;;;;5096334;28;20020;-65
2021/08/18 02:04:07;;;;;;;2.53;1.15;;;15.50;99.90;;;;;;5096908;28;20028;-65
2021/08/18 02:06:33;;;;;;;3.83;1.55;;;15.50;99.90;;;;;;5096619;28;20095;-65
2021/08/18 02:08:58;;;;;;;2.80;1.58;;;15.50;99.90;;;;;;5096722;28;20059;-65
2021/08/18 02:11:24;;;;;;;4.40;1.30;;;15.40;99.90;;;;;;5096461;28;20020;-65
2021/08/18 02:13:50;;;;;;;3.58;1.40;;;15.40;99.90;;;;;;5096789;28;20576;-65
2021/08/18 02:16:16;;;;;;;10.32;1.88;;;15.50;99.90;;;;;;5096150;28;20341;-64
2021/08/18 02:18:42;;;;;;;2.80;1.70;;;15.40;99.90;;;;;;5096541;28;20494;-65
2021/08/18 02:21:08;;;;;;;3.30;1.30;;;15.30;99.90;;;;;;5096488;28;20031;-65
2021/08/18 02:23:35;;;;;;;3.80;1.60;;;;;;;;;;5097991;28;20024;-65
2021/08/18 02:26:00;;;;;;;4.07;1.60;;;15.30;99.90;;;;;;5100634;28;20056;-65
2021/08/18 02:28:26;;;;;;;7.32;1.50;;;15.30;99.90;;;;;;5100617;28;20035;-65
2021/08/18 02:30:52;;;;;;;4.75;1.40;;;;;;;;;;5100516;28;20564;-65
2021/08/18 02:33:18;;;;;;;3.17;1.20;;;15.30;99.90;;;;;;5100309;28;20028;-65
2021/08/18 02:35:44;;;;;;;2.88;1.50;;;15.30;99.90;;;;;;5100528;28;20062;-65
2021/08/18 02:38:10;;;;;;;2.17;1.77;;;15.20;99.90;;;;;;5100545;28;20039;-65
2021/08/18 02:40:36;;;;;;;8.15;1.77;;;15.30;99.90;;;;;;5100265;28;20024;-65
2021/08/18 02:43:02;;;;;;;2.45;1.45;;;15.20;99.90;;;;;;5100480;28;20162;-65
2021/08/18 02:45:30;;;;;;;4.97;1.85;;;15.30;99.90;;;;;;5100321;28;20024;-65
2021/08/18 02:47:56;;;;;;;2.67;1.52;;;15.20;99.90;;;;;;5100112;28;20070;-65
2021/08/18 02:50:24;;;;;;;2.15;1.40;;;15.20;99.90;;;;;;5100114;28;20372;-65
2021/08/18 02:52:50;;;;;;;1.65;1.27;;;15.20;99.90;;;;;;5100244;28;20034;-65
2021/08/18 02:55:16;;;;;;;3.67;1.73;;;15.20;99.90;;;;;;5099641;28;20404;-65
2021/08/18 02:57:42;;;;;;;5.90;1.80;;;15.30;99.90;;;;;;5100171;28;20035;-65
2021/08/18 03:00:09;;;;;;;1.75;1.02;;;15.20;99.90;;;;;;5099957;28;20081;-65
2021/08/18 03:02:35;;;;;;;3.35;1.73;;;15.20;99.90;;;;;;5099645;28;20448;-64
2021/08/18 03:05:01;;;;;;;2.97;1.13;;;15.20;99.90;;;;;;5099873;28;20103;-65
2021/08/18 03:07:27;;;;;;;3.55;1.50;;;15.20;99.90;;;;;;5099804;28;20028;-65
2021/08/18 03:09:53;;;;;;;3.30;1.58;;;15.20;99.90;;;;;;5099785;28;20020;-65
2021/08/18 03:12:19;;;;;;;5.45;1.50;;;15.20;99.90;;;;;;5099890;28;20048;-65
2021/08/18 03:14:45;;;;;;;3.25;1.55;;;15.20;99.90;;;;;;5099575;28;20103;-64
2021/08/18 03:17:11;;;;;;;3.60;1.98;;;15.20;99.90;;;;;;5099465;28;20113;-64
2021/08/18 03:19:37;;;;;;;4.97;1.60;;;15.10;99.90;;;;;;5099667;28;20083;-65
2021/08/18 03:22:03;;;;;;;3.28;1.35;;;15.20;99.90;;;;;;5099515;28;20032;-65
2021/08/18 03:24:29;;;;;;;3.08;1.65;;;15.20;99.90;;;;;;5099376;28;20048;-65
2021/08/18 03:26:55;;;;;;;2.83;1.40;;;15.10;99.90;;;;;;5099393;28;20034;-65
2021/08/18 03:29:20;;;;;;;1.95;1.35;;;15.10;99.90;;;;;;5099632;28;20024;-65
2021/08/18 03:31:46;;;;;;;5.68;2.38;;;15.20;99.90;;;;;;5099360;28;20016;-65
2021/08/18 03:34:12;;;;;;;4.07;1.90;;;15.10;99.90;;;;;;5098856;28;20020;-65
2021/08/18 03:36:38;;;;;;;3.08;1.50;;;15.10;99.90;;;;;;5098605;28;20028;-64
2021/08/18 03:39:04;;;;;;;4.15;1.40;;;15.10;99.90;;;;;;5099182;28;20031;-65
2021/08/18 03:41:30;;;;;;;6.43;1.88;;;15.20;99.90;;;;;;5099293;28;20032;-65
2021/08/18 03:43:56;;;;;;;4.40;1.63;;;15.10;99.90;;;;;;5099186;28;20101;-65
2021/08/18 03:46:22;;;;;;;3.47;1.67;;;15.20;99.90;;;;;;5098811;28;20028;-65
2021/08/18 03:48:47;;;;;;;5.88;2.45;;;15.10;99.90;;;;;;5099182;28;20024;-65
2021/08/18 03:51:13;;;;;;;2.75;1.63;;;15.20;99.90;;;;;;5099028;28;20534;-65
2021/08/18 03:53:39;;;;;;;3.20;1.63;;;15.10;99.90;;;;;;5098692;28;20032;-65
2021/08/18 03:56:05;;;;;;;2.78;1.52;;;15.10;99.90;;;;;;5099046;28;20034;-64
2021/08/18 03:58:31;;;;;;;3.75;1.73;;;15.10;99.90;;;;;;5098898;28;20030;-64
2021/08/18 04:00:57;;;;;;;2.63;1.73;;;15.10;99.90;;;;;;5098797;28;20111;-65
2021/08/18 04:03:23;;;;;;;3.60;1.70;;;15.10;99.90;;;;;;5098445;28;20488;-65
2021/08/18 04:05:49;;;;;;;3.17;2.00;;;15.10;99.90;;;;;;5099021;28;20027;-64
2021/08/18 04:08:15;;;;;;;3.80;1.20;;;15.10;99.90;;;;;;5098379;28;20050;-65
2021/08/18 04:10:40;;;;;;;3.50;1.55;;;15.10;99.90;;;;;;5098948;28;20507;-65
2021/08/18 04:13:06;;;;;;;2.08;1.33;;;15.10;99.90;;;;;;5098478;28;20020;-64
2021/08/18 04:15:38;;;;;;;2.63;1.42;;;15.10;99.90;;;;;;5098655;28;20119;-65
2021/08/18 04:18:05;;;;;;;1.40;1.30;;;15.10;99.90;;;;;;5098106;28;20107;-65
2021/08/18 04:20:31;;;;;;;2.50;1.58;;;15.10;99.90;;;;;;5098548;28;20035;-65
2021/08/18 04:22:57;;;;;;;8.55;1.83;;;15.10;99.90;;;;;;5098464;28;20024;-65
2021/08/18 04:25:23;;;;;;;2.72;1.58;;;15.10;99.90;;;;;;5098279;28;20088;-64
2021/08/18 04:27:50;;;;;;;2.35;1.25;;;15.10;99.90;;;;;;5098336;28;20447;-65
2021/08/18 04:30:17;;;;;;;4.07;1.98;;;15.10;99.90;;;;;;5098642;28;20028;-65
2021/08/18 04:32:43;;;;;;;3.38;1.90;;;15.00;99.90;;;;;;5097700;28;20092;-64
2021/08/18 04:35:11;;;;;;;2.50;1.75;;;14.90;99.90;;;;;;5098187;28;20069;-65
2021/08/18 04:37:37;;;;;;;3.95;1.55;;;15.10;99.90;;;;;;5098104;28;20073;-65
2021/08/18 04:40:05;;;;;;;5.30;1.77;;;15.00;99.90;;;;;;5098021;28;20064;-65
2021/08/18 04:42:39;;;;;;;4.85;2.13;;;15.00;99.90;;;;;;5097983;28;20031;-64
2021/08/18 04:45:06;;;;;;;4.00;1.70;;;15.00;99.90;;;;;;5098121;28;20093;-65
2021/08/18 04:47:32;;;;;;;3.65;1.65;;;15.00;99.90;;;;;;5097106;28;20051;-64
2021/08/18 04:49:58;;;;;;;4.00;1.30;;;15.00;99.90;;;;;;5098106;28;20035;-65
2021/08/18 04:52:24;;;;;;;3.38;1.15;;;15.00;99.90;;;;;;5097725;28;20484;-65
2021/08/18 04:54:51;;;;;;;9.57;2.30;;;15.00;99.90;;;;;;5097805;28;20173;-65
2021/08/18 04:57:16;;;;;;;4.22;1.60;;;15.00;99.90;;;;;;5097996;28;20024;-65
2021/08/18 04:59:42;;;;;;;8.07;2.40;;;15.00;99.90;;;;;;5097808;28;20035;-65
2021/08/18 05:02:08;;;;;;;2.85;1.67;;;15.00;99.90;;;;;;5097399;28;20024;-64
2021/08/18 05:04:34;;;;;;;1.95;1.45;;;14.90;99.90;;;;;;5097828;28;20080;-65
2021/08/18 05:07:00;;;;;;;5.40;2.83;;;14.90;99.90;;;;;;5097414;28;20503;-65
2021/08/18 05:09:26;;;;;;;2.97;1.98;;;15.00;99.90;;;;;;5097566;28;20022;-65
2021/08/18 05:11:53;;;;;;;2.17;1.58;;;14.90;99.90;;;;;;5097371;28;20020;-65
2021/08/18 05:14:20;;;;;;;4.47;2.38;;;14.90;99.90;;;;;;5097833;28;20078;-65
2021/08/18 05:16:46;;;;;;;4.43;2.25;;;14.90;99.90;;;;;;5097133;28;20023;-65
2021/08/18 05:19:12;;;;;;;6.10;1.98;;;14.90;99.90;;;;;;5097520;28;20024;-65
2021/08/18 05:21:38;;;;;;;4.72;1.85;;;14.90;99.90;;;;;;5097394;28;20032;-65
2021/08/18 05:24:04;;;;;;;5.32;1.98;;;14.90;99.90;;;;;;5097222;28;20035;-65
2021/08/18 05:26:30;;;;;;;5.10;2.30;;;15.00;99.90;;;;;;5097253;28;20024;-65
2021/08/18 05:28:55;;;;;;;7.22;2.20;;;15.00;99.90;;;;;;5097206;28;20023;-65
2021/08/18 05:31:21;;;;;;;2.33;1.58;;;15.00;99.90;;;;;;5096551;28;20087;-65
2021/08/18 05:33:47;;;;;;;8.60;1.65;;;15.00;99.90;;;;;;5097498;28;20028;-65
2021/08/18 05:36:13;;;;;;;3.50;1.50;;;14.90;99.90;;;;;;5096965;28;20032;-65
2021/08/18 05:38:39;;;;;;;3.53;2.40;;;15.00;99.90;;;;;;5096972;28;20050;-65
2021/08/18 05:41:05;;;;;;;2.58;1.73;;;15.00;99.90;;;;;;5096829;28;20054;-65
2021/08/18 05:43:30;;;;;;;3.78;1.60;;;15.10;99.90;;;;;;5097064;28;20027;-65
2021/08/18 05:45:56;;;;;;;3.58;1.75;;;15.10;99.90;;;;;;5096549;28;20396;-65
2021/08/18 05:48:22;;;;;;;2.58;1.92;;;15.10;99.90;;;;;;5096980;28;20070;-65
2021/08/18 05:50:48;;;;;;;5.72;2.00;;;15.10;99.90;;;;;;5097083;28;20050;-65
2021/08/18 05:53:18;;;;;;;3.50;1.77;;;15.10;99.90;;;;;;5096555;28;20015;-65
2021/08/18 05:55:45;;;;;;;6.35;2.33;;;15.10;99.90;;;;;;5096685;28;20472;-65
2021/08/18 05:58:11;;;;;;;2.65;1.67;;;15.10;99.90;;;;;;5096006;28;20393;-65
2021/08/18 06:00:37;;;;;;;5.90;2.50;;;15.10;99.90;;;;;;5096594;28;20077;-65
2021/08/18 06:03:03;;;;;;;5.70;2.90;;;15.10;99.90;;;;;;5096515;28;20030;-65
2021/08/18 06:05:30;;;;;;;5.78;2.30;;;15.20;99.90;;;;;;5096795;28;20083;-65
2021/08/18 06:07:56;;;;;;;3.20;2.10;;;15.10;99.90;;;;;;5096675;28;20073;-65
2021/08/18 06:10:22;;;;;;;9.45;2.92;;;15.20;99.90;;;;;;5096587;28;20024;-65
2021/08/18 06:12:48;;;;;;;5.13;2.40;;;15.20;99.90;;;;;;5096715;28;20027;-64
2021/08/18 06:15:14;;;;;;;5.07;1.95;;;15.20;99.90;;;;;;5096800;28;20380;-65
2021/08/18 06:17:40;;;;;;;5.70;2.40;;;15.30;99.90;;;;;;5096244;28;20024;-65
2021/08/18 06:20:07;;;;;;;6.30;3.63;;;15.30;99.90;;;;;;5096851;28;20546;-65
2021/08/18 06:22:33;;;;;;;4.45;2.05;;;15.40;99.90;;;;;;5096462;28;20384;-65
2021/08/18 06:25:03;;;;;;;5.53;1.90;;;15.40;99.90;;;;;;5096542;28;20028;-66
2021/08/18 06:27:30;;;;;;;4.22;2.60;;;15.40;99.90;;;;;;5096337;28;20059;-66
2021/08/18 06:29:56;;;;;;;4.53;2.25;;;15.50;99.90;;;;;;5096653;28;20024;-66
2021/08/18 06:32:22;;;;;;;5.05;2.30;;;15.50;99.90;;;;;;5096157;28;20085;-66
2021/08/18 06:34:51;;;;;;;2.67;2.03;;;15.60;99.90;;;;;;5096731;28;20024;-66
2021/08/18 06:37:16;;;;;;;5.50;2.55;;;15.60;99.90;;;;;;5096698;28;20035;-66
2021/08/18 06:39:42;;;;;;;3.10;2.50;;;15.60;99.90;;;;;;5096387;28;20087;-66
2021/08/18 06:42:08;;;;;;;3.17;2.10;;;15.60;99.90;;;;;;5096401;28;20016;-66
2021/08/18 06:44:34;;;;;;;5.70;2.47;;;15.60;99.90;;;;;;5096572;28;20499;-66
2021/08/18 06:47:00;;;;;;;3.85;2.10;;;15.60;99.90;;;;;;5096037;28;20092;-66
2021/08/18 06:49:26;;;;;;;5.10;2.10;;;15.70;99.90;;;;;;5096527;28;20032;-66
2021/08/18 06:51:52;;;;;;;9.95;2.50;;;15.80;99.90;;;;;;5096286;28;20016;-66
2021/08/18 06:54:17;;;;;;;2.67;1.90;;;15.70;99.90;;;;;;5096246;28;20044;-66
2021/08/18 06:56:43;;;;;;;4.80;1.73;;;15.80;99.90;;;;;;5096159;28;20020;-66
2021/08/18 06:59:09;;;;;;;3.95;1.83;;;15.70;99.90;;;;;;5096237;28;20031;-66
2021/08/18 07:01:35;;;;;;;5.88;2.13;;;15.80;99.90;;;;;;5095829;28;20024;-66
2021/08/18 07:04:02;;;;;;;4.80;2.20;;;15.90;99.90;;;;;;5096305;28;20032;-66
2021/08/18 07:06:28;;;;;;;4.40;2.05;;;15.80;99.90;;;;;;5096144;28;20391;-65
2021/08/18 07:08:54;;;;;;;8.25;2.85;;;15.90;99.90;;;;;;5096423;28;20028;-66
2021/08/18 07:11:20;;;;;;;7.88;2.58;;;15.90;99.90;;;;;;5099923;28;20092;-66
2021/08/18 07:13:45;;;;;;;11.38;2.67;;;15.90;99.90;;;;;;5100211;28;20375;-66
2021/08/18 07:16:11;;;;;;;6.05;2.30;;;15.90;99.90;;;;;;5099379;28;20111;-66
2021/08/18 07:18:37;;;;;;;3.58;1.80;;;15.90;99.90;;;;;;5099919;28;20027;-66
2021/08/18 07:21:03;;;;;;;5.07;1.77;;;16.00;99.90;;;;;;5099464;28;20024;-66
2021/08/18 07:23:29;;;;;;;6.85;2.40;;;16.10;99.90;;;;;;5099633;28;20065;-66
2021/08/18 07:25:55;;;;;;;4.57;2.13;;;16.10;99.90;;;;;;5099455;28;20080;-66
2021/08/18 07:28:20;;;;;;;3.80;2.00;;;16.10;99.90;;;;;;5099618;28;20032;-66
2021/08/18 07:30:46;;;;;;;5.43;2.25;;;16.20;99.90;;;;;;5099469;28;20061;-65
2021/08/18 07:33:12;;;;;;;5.10;2.38;;;16.30;99.90;;;;;;5098988;28;20395;-64
2021/08/18 07:35:38;;;;;;;5.72;2.10;;;16.30;99.90;;;;;;5099284;28;20392;-63
2021/08/18 07:38:04;;;;;;;6.10;2.65;;;16.30;99.90;;;;;;5099616;28;20077;-64
2021/08/18 07:40:30;;;;;;;3.88;1.50;;;16.30;99.90;;;;;;5099205;28;20024;-63
2021/08/18 07:42:56;;;;;;;6.25;2.38;;;16.40;99.90;;;;;;5099275;28;20020;-63
2021/08/18 07:45:23;;;;;;;2.72;1.58;;;16.40;99.90;;;;;;5099383;28;20028;-64
2021/08/18 07:47:49;;;;;;;5.25;2.22;;;;;;;;;;5098969;28;20024;-63
2021/08/18 07:50:15;;;;;;;3.13;2.17;;;16.60;99.90;;;;;;5099027;28;20020;-64
2021/08/18 07:52:41;;;;;;;8.40;2.55;;;16.60;99.90;;;;;;5099039;28;20513;-60
2021/08/18 07:55:07;;;;;;;6.45;2.60;;;16.60;99.90;;;;;;5098690;28;20044;-61
2021/08/18 07:57:34;;;;;;;7.60;2.40;;;16.60;99.90;;;;;;5099061;28;20103;-61
2021/08/18 08:00:05;;;;;;;5.78;1.92;;;16.60;99.90;;;;;;5085361;28;20526;-61
2021/08/18 08:02:32;;;;;;;6.07;2.13;;;16.60;99.90;;;;;;5098141;28;20063;-61
2021/08/18 08:04:58;;;;;;;3.53;2.08;;;16.60;99.90;;;;;;5099168;28;20023;-61
2021/08/18 08:07:24;;;;;;;8.05;2.85;;;16.70;99.90;;;;;;5097527;28;20024;-61
2021/08/18 08:09:50;;;;;;;5.80;2.05;;;16.80;99.90;;;;;;5098657;28;20024;-61
2021/08/18 08:12:16;;;;;;;7.45;2.17;;;16.80;99.90;;;;;;5098802;28;20032;-61
2021/08/18 08:14:42;;;;;;;4.55;1.95;;;16.80;99.90;;;;;;5097989;28;20073;-61
2021/08/18 08:17:07;;;;;;;5.10;2.17;;;16.80;99.90;;;;;;5105636;28;20392;-61
2021/08/18 08:19:33;;;;;;;3.65;2.22;;;16.90;99.90;;;;;;5104120;28;20500;-61
2021/08/18 08:21:59;;;;;;;5.25;2.75;;;16.90;99.90;;;;;;5097358;28;20101;-61
2021/08/18 08:24:25;;;;;;;6.47;2.30;;;17.00;99.90;;;;;;5098253;28;20499;-61
2021/08/18 08:26:51;;;;;;;5.18;2.20;;;17.00;99.90;;;;;;5098404;28;20020;-61
2021/08/18 08:29:17;;;;;;;4.30;2.30;;;17.10;99.90;;;;;;5097964;28;20031;-62
2021/08/18 08:31:43;;;;;;;4.88;2.30;;;17.10;99.90;;;;;;5097943;28;20069;-62
2021/08/18 08:34:10;;;;;;;4.28;2.22;;;17.00;99.90;;;;;;5098302;28;20099;-62
2021/08/18 08:36:36;;;;;;;3.67;2.35;;;17.10;99.90;;;;;;5097812;28;20024;-62
2021/08/18 08:39:02;;;;;;;5.05;2.15;;;;;;;;;;5097971;28;20016;-61
2021/08/18 08:41:31;;;;;;;3.33;1.70;;;17.30;99.90;;;;;;5095355;28;20506;-61
2021/08/18 08:43:58;;;;;;;5.28;2.35;;;17.40;99.90;;;;;;5097290;28;20053;-62
2021/08/18 08:46:24;;;;;;;5.22;2.55;;;17.40;99.90;;;;;;5097497;28;20039;-62
2021/08/18 08:48:51;;;;;;;4.47;2.40;;;17.40;99.90;;;;;;5094454;28;20025;-61
2021/08/18 08:51:17;;;;;;;5.63;2.13;;;17.40;99.90;;;;;;5097695;28;20027;-62
2021/08/18 08:53:43;;;;;;;3.60;2.10;;;17.40;99.90;;;;;;5103207;28;20035;-61
2021/08/18 08:56:09;;;;;;;5.38;1.80;;;17.40;99.90;;;;;;5097919;28;20024;-61
2021/08/18 08:58:35;;;;;;;7.97;2.25;;;17.40;99.90;;;;;;5097240;28;20016;-61
2021/08/18 09:01:01;;;;;;;5.47;1.75;;;17.50;99.90;;;;;;5097507;28;20548;-62
2021/08/18 09:03:28;;;;;;;5.20;1.88;;;17.50;99.90;;;;;;5097787;28;20499;-62
2021/08/18 09:06:04;;;;;;;5.20;2.20;;;17.50;99.90;;;;;;5097190;28;20483;-61
2021/08/18 09:08:30;;;;;;;6.07;2.00;;;;;;;;;;5097509;28;20051;-62
2021/08/18 09:11:08;;;;;;;4.72;1.67;;;17.60;99.90;;;;;;5097225;28;20035;-61
2021/08/18 09:14:05;;;;;;;3.25;1.88;;;17.80;99.90;;;;;;5096138;28;20020;-61
2021/08/18 09:16:37;;;;;;;2.95;2.28;;;17.90;99.90;;;;;;5073067;28;20048;-62
2021/08/18 09:19:03;;;;;;;6.53;2.78;;;18.00;99.90;;;;;;5097548;28;20111;-62
2021/08/18 09:21:41;;;;;;;3.63;2.42;;;18.10;99.90;;;;;;5097224;28;20100;-64
2021/08/18 09:24:16;;;;;;;5.47;2.30;;;18.10;99.90;;;;;;5097188;28;20020;-65
2021/08/18 09:26:48;;;;;;;6.80;2.55;;;18.20;99.90;;;;;;5097512;28;20073;-64
2021/08/18 09:29:33;;;;;;;3.30;2.05;;;18.10;99.90;;;;;;5097014;28;20169;-64
2021/08/18 09:32:21;;;;;;;5.10;2.15;;;18.20;99.90;;;;;;5096571;28;20472;-64
2021/08/18 09:35:02;;;;;;;5.20;2.67;;;18.20;99.90;;;;;;5083605;28;20492;-63
2021/08/18 09:37:28;;;;;;;5.68;1.88;;;18.20;99.90;;;;;;5088254;28;20033;-65
2021/08/18 09:39:55;;;;;;;8.15;2.20;;;18.20;99.90;;;;;;5096865;28;20027;-64
2021/08/18 09:42:29;;;;;;;5.03;2.20;;;18.30;99.90;;;;;;5095107;28;20508;-63
2021/08/18 09:45:09;;;;;;;4.72;2.05;;;18.30;99.90;;;;;;5095771;28;20051;-64
2021/08/18 09:47:35;;;;;;;4.18;2.15;;;18.30;99.90;;;;;;5096427;28;20033;-62
2021/08/18 09:50:01;;;;;;;4.65;2.05;;;18.30;99.90;;;;;;5096811;28;20044;-65
2021/08/18 09:52:27;;;;;;;3.95;1.98;;;18.40;99.90;;;;;;5096720;28;20431;-63
2021/08/18 09:54:53;;;;;;;3.75;1.70;;;18.50;99.90;;;;;;5096566;28;20063;-63
2021/08/18 09:57:29;;;;;;;5.03;1.90;;;18.60;99.90;;;;;;5096885;28;20020;-63
2021/08/18 09:59:56;;;;;;;3.92;2.15;;;18.80;99.90;;;;;;5096864;28;20016;-63
2021/08/18 10:02:25;;;;;;;5.28;2.25;;;19.00;99.90;;;;;;5096381;28;20028;-63
2021/08/18 10:04:51;;;;;;;7.35;2.20;;;19.10;99.90;;;;;;5097048;28;20480;-62
2021/08/18 10:07:18;;;;;;;5.43;1.90;;;19.20;99.90;;;;;;5096723;28;20016;-67
2021/08/18 10:09:44;;;;;;;4.90;2.10;;;19.20;99.90;;;;;;5096528;28;20069;-67
2021/08/18 10:12:10;;;;;;;4.30;2.20;;;19.20;99.90;;;;;;5096761;28;20028;-67
2021/08/18 10:14:36;;;;;;;4.40;1.92;;;19.30;99.90;;;;;;5096543;28;20044;-66
2021/08/18 10:17:02;;;;;;;2.92;1.60;;;19.40;99.90;;;;;;5096386;28;20093;-68
2021/08/18 10:19:28;;;;;;;4.03;2.03;;;19.50;99.90;;;;;;5096520;28;20020;-67
2021/08/18 10:22:01;;;;;;;5.72;2.17;;;19.40;99.90;;;;;;5096710;28;20073;-67
2021/08/18 10:24:32;;;;;;;6.75;1.50;;;19.30;99.90;;;;;;5096425;28;20415;-67
2021/08/18 10:26:58;;;;;;;4.72;1.80;;;19.40;99.90;;;;;;5096528;28;20055;-66
2021/08/18 10:29:38;;;;;;;3.05;1.50;;;19.30;99.90;;;;;;5096291;28;20077;-67
2021/08/18 10:32:12;;;;;;;3.05;1.40;;;19.20;99.90;;;;;;5096181;28;20024;-68
2021/08/18 10:34:47;;;;;;;3.05;1.20;;;19.30;99.90;;;;;;5096516;28;20103;-67
2021/08/18 10:37:13;;;;;;;2.05;1.50;;;19.40;99.90;;;;;;5096447;28;20032;-67
2021/08/18 10:39:43;;;;;;;2.85;1.60;;;19.40;99.90;;;;;;5094981;28;20529;-67
2021/08/18 10:42:17;;;;;;;4.20;1.77;;;19.30;99.90;;;;;;5096176;28;20024;-67
2021/08/18 10:44:48;;;;;;;3.03;1.90;;;19.40;99.90;;;;;;5098175;28;20020;-68
2021/08/18 10:47:25;;;;;;;4.40;1.77;;;19.50;99.90;;;;;;5100026;28;20024;-67
2021/08/18 10:49:52;;;;;;;4.28;1.58;;;19.50;99.90;;;;;;5100192;28;20031;-67
2021/08/18 10:52:36;;;;;;;4.20;1.52;;;19.70;99.90;;;;;;5100322;28;20058;-68
2021/08/18 10:55:10;;;;;;;3.42;1.70;;;19.80;99.90;;;;;;5099892;28;20037;-68
2021/08/18 10:57:45;;;;;;;3.08;1.50;;;19.90;99.90;;;;;;5100214;28;20081;-68
2021/08/18 11:00:32;;;;;;;3.75;1.73;;;19.90;99.90;;;;;;5099931;28;20036;-68
2021/08/18 11:03:09;;;;;;;4.93;1.95;;;19.90;99.90;;;;;;5099723;28;20032;-69
2021/08/18 11:05:38;;;;;;;3.47;1.60;;;20.00;99.90;;;;;;5100109;28;20472;-67
2021/08/18 11:08:09;;;;;;;2.05;1.50;;;20.10;99.90;;;;;;5099790;28;20032;-67
2021/08/18 11:10:55;;;;;;;4.82;1.80;;;20.10;99.90;;;;;;5100077;28;20031;-70
2021/08/18 11:13:42;;;;;;;4.20;1.98;;;20.10;99.90;;;;;;5099320;28;20394;-70
2021/08/18 11:16:15;;;;;;;2.92;1.52;;;20.10;99.90;;;;;;5098022;28;20030;-68
2021/08/18 11:18:46;;;;;;;2.17;1.25;;;20.10;99.90;;;;;;5099838;28;20036;-69
2021/08/18 11:21:17;;;;;;;5.75;1.80;;;20.20;99.90;;;;;;5099629;28;20042;-70
2021/08/18 11:23:59;;;;;;;7.22;1.55;;;20.40;99.90;;;;;;5095624;28;20039;-65
2021/08/18 11:26:30;;;;;;;2.30;1.38;;;20.50;99.90;;;;;;5101226;28;20028;-69
2021/08/18 11:28:59;;;;;;;3.40;1.73;;;20.50;99.90;;;;;;5094587;28;20056;-69
2021/08/18 11:31:34;;;;;;;5.13;2.00;;;20.50;99.90;;;;;;5107389;28;20019;-70
2021/08/18 11:34:00;;;;;;;12.88;2.53;;;20.60;99.90;;;;;;5099606;28;20062;-70
2021/08/18 11:36:31;;;;;;;7.60;1.83;;;20.60;99.90;;;;;;5099498;28;20032;-70
2021/08/18 11:39:02;;;;;;;4.13;1.50;;;20.70;99.90;;;;;;5098706;28;20388;-70
2021/08/18 11:41:47;;;;;;;7.32;1.90;;;20.70;99.90;;;;;;5099225;28;20054;-70
2021/08/18 11:44:29;;;;;;;4.15;1.52;;;20.80;99.90;;;;;;5096625;28;20518;-70
2021/08/18 11:47:17;;;;;;;4.35;1.92;;;20.90;99.90;;;;;;5098389;28;20020;-70
2021/08/18 11:49:47;;;;;;;2.78;1.38;;;21.00;99.90;;;;;;5099067;28;20426;-71
2021/08/18 11:52:18;;;;;;;1.95;1.20;;;21.00;99.90;;;;;;5098943;28;20024;-70
2021/08/18 11:54:58;;;;;;;4.88;2.05;;;20.90;99.90;;;;;;5098151;28;20523;-70
2021/08/18 11:57:25;;;;;;;3.30;1.63;;;21.00;99.90;;;;;;5097873;28;20028;-70
2021/08/18 11:59:53;;;;;;;6.53;2.80;;;21.10;99.90;;;;;;5096408;28;20496;-70
2021/08/18 12:02:24;;;;;;;5.15;1.92;;;21.10;99.90;;;;;;5097824;28;20039;-70
2021/08/18 12:04:50;;;;;;;5.40;2.20;;;21.20;99.90;;;;;;5097506;28;20125;-70
2021/08/18 12:07:17;;;;;;;7.93;2.08;;;21.30;99.90;;;;;;5098510;28;20486;-70
2021/08/18 12:10:06;;;;;;;6.00;2.22;;;21.20;99.90;;;;;;5098715;28;20016;-70
2021/08/18 12:12:32;;;;;;;4.28;2.00;;;21.10;99.90;;;;;;5096800;28;20020;-69
2021/08/18 12:15:11;;;;;;;6.70;2.53;;;20.70;99.90;;;;;;5098516;28;20024;-69
2021/08/18 12:17:38;;;;;;;3.40;2.05;;;20.60;99.90;;;;;;5098418;28;20024;-69
2021/08/18 12:20:27;;;;;;;6.32;2.05;;;20.60;99.90;;;;;;5097085;28;20023;-69
2021/08/18 12:22:53;;;;;;;5.18;2.15;;;20.60;99.90;;;;;;5098406;28;20024;-69
2021/08/18 12:25:29;;;;;;;6.38;2.00;;;20.50;99.90;;;;;;5098538;28;20020;-69
2021/08/18 12:28:17;;;;;;;2.17;1.35;;;20.40;99.90;;;;;;5098360;28;20077;-69
2021/08/18 12:30:57;;;;;;;3.08;1.70;;;20.60;99.90;;;;;;5098028;28;20042;-69
2021/08/18 12:33:23;;;;;;;3.95;1.83;;;20.80;99.90;;;;;;5098073;28;20024;-69
2021/08/18 12:36:09;;;;;;;4.90;1.95;;;21.00;99.90;;;;;;5098362;28;20020;-69
2021/08/18 12:38:35;;;;;;;1.98;1.23;;;21.20;99.90;;;;;;5097962;28;20028;-69
2021/08/18 12:41:08;;;;;;;1.83;1.63;;;21.30;99.90;;;;;;5096654;28;20035;-67
2021/08/18 12:43:35;;;;;;;4.03;2.05;;;21.30;99.90;;;;;;5098095;28;20028;-69
2021/08/18 12:46:00;;;;;;;4.07;1.70;;;21.30;99.90;;;;;;5096354;28;20036;-69
2021/08/18 12:48:29;;;;;;;4.63;2.13;;;21.30;99.90;;;;;;5098002;28;20391;-67
2021/08/18 12:50:57;;;;;;;5.68;1.83;;;21.20;99.90;;;;;;5097773;28;20019;-68
2021/08/18 12:53:23;;;;;;;2.95;1.30;;;21.20;99.90;;;;;;5097558;28;20035;-69